sensor_id;sensor_type;location;lat;lon;timestamp;temperature;humidity
31677;DHT22;18385;51.572;6.578;2023-12-04T00:00:47;4.50;66.10
31677;DHT22;18385;51.572;6.578;2023-12-04T00:03:12;4.50;66.00
31677;DHT22;18385;51.572;6.578;2023-12-04T00:05:38;4.50;66.80
31677;DHT22;18385;51.572;6.578;2023-12-04T00:08:04;4.50;66.10
31677;DHT22;18385;51.572;6.578;2023-12-04T00:10:29;4.60;66.10
31677;DHT22;18385;51.572;6.578;2023-12-04T00:12:55;4.60;66.10
31677;DHT22;18385;51.572;6.578;2023-12-04T00:15:21;4.60;66.10
31677;DHT22;18385;51.572;6.578;2023-12-04T00:17:47;4.60;66.00
31677;DHT22;18385;51.572;6.578;2023-12-04T00:20:12;4.60;66.00
31677;DHT22;18385;51.572;6.578;2023-12-04T00:22:38;4.60;66.00
31677;DHT22;18385;51.572;6.578;2023-12-04T00:25:05;4.70;66.00
31677;DHT22;18385;51.572;6.578;2023-12-04T00:27:31;4.70;66.00
31677;DHT22;18385;51.572;6.578;2023-12-04T00:29:57;4.70;65.90
31677;DHT22;18385;51.572;6.578;2023-12-04T00:32:23;4.70;65.90
31677;DHT22;18385;51.572;6.578;2023-12-04T00:34:48;4.70;66.00
31677;DHT22;18385;51.572;6.578;2023-12-04T00:37:14;4.70;66.00
31677;DHT22;18385;51.572;6.578;2023-12-04T00:39:40;4.70;66.00
31677;DHT22;18385;51.572;6.578;2023-12-04T00:42:05;4.70;66.00
31677;DHT22;18385;51.572;6.578;2023-12-04T00:44:31;4.70;66.00
31677;DHT22;18385;51.572;6.578;2023-12-04T00:46:57;4.70;66.00
31677;DHT22;18385;51.572;6.578;2023-12-04T00:49:23;4.60;66.00
31677;DHT22;18385;51.572;6.578;2023-12-04T00:51:49;4.60;66.00
31677;DHT22;18385;51.572;6.578;2023-12-04T00:54:15;4.60;66.00
31677;DHT22;18385;51.572;6.578;2023-12-04T00:56:41;4.60;66.00
31677;DHT22;18385;51.572;6.578;2023-12-04T00:59:09;4.60;66.80
31677;DHT22;18385;51.572;6.578;2023-12-04T01:01:36;4.60;66.00
31677;DHT22;18385;51.572;6.578;2023-12-04T01:04:02;4.60;66.00
31677;DHT22;18385;51.572;6.578;2023-12-04T01:06:28;4.60;66.10
31677;DHT22;18385;51.572;6.578;2023-12-04T01:08:55;4.60;66.20
31677;DHT22;18385;51.572;6.578;2023-12-04T01:11:21;4.60;66.10
31677;DHT22;18385;51.572;6.578;2023-12-04T01:13:48;4.60;66.20
31677;DHT22;18385;51.572;6.578;2023-12-04T01:16:14;4.60;66.10
31677;DHT22;18385;51.572;6.578;2023-12-04T01:18:41;4.60;66.10
31677;DHT22;18385;51.572;6.578;2023-12-04T01:21:07;4.70;66.10
31677;DHT22;18385;51.572;6.578;2023-12-04T01:23:35;4.70;66.10
31677;DHT22;18385;51.572;6.578;2023-12-04T01:26:01;4.70;66.10
31677;DHT22;18385;51.572;6.578;2023-12-04T01:28:27;4.70;66.10
31677;DHT22;18385;51.572;6.578;2023-12-04T01:30:52;4.70;66.10
31677;DHT22;18385;51.572;6.578;2023-12-04T01:33:18;4.70;66.00
31677;DHT22;18385;51.572;6.578;2023-12-04T01:35:44;4.70;66.00
31677;DHT22;18385;51.572;6.578;2023-12-04T01:38:09;4.70;66.00
31677;DHT22;18385;51.572;6.578;2023-12-04T01:40:35;4.70;66.00
31677;DHT22;18385;51.572;6.578;2023-12-04T01:43:01;4.70;66.00
31677;DHT22;18385;51.572;6.578;2023-12-04T01:45:27;4.70;66.00
31677;DHT22;18385;51.572;6.578;2023-12-04T01:47:53;4.70;66.00
31677;DHT22;18385;51.572;6.578;2023-12-04T01:50:19;4.70;66.00
31677;DHT22;18385;51.572;6.578;2023-12-04T01:52:46;4.70;66.00
31677;DHT22;18385;51.572;6.578;2023-12-04T01:55:12;4.70;66.10
31677;DHT22;18385;51.572;6.578;2023-12-04T01:57:38;4.70;66.10
31677;DHT22;18385;51.572;6.578;2023-12-04T02:00:05;4.70;66.10
31677;DHT22;18385;51.572;6.578;2023-12-04T02:02:40;4.70;66.10
31677;DHT22;18385;51.572;6.578;2023-12-04T02:05:08;4.70;66.10
31677;DHT22;18385;51.572;6.578;2023-12-04T02:07:34;4.70;66.00
31677;DHT22;18385;51.572;6.578;2023-12-04T02:10:03;4.70;66.10
31677;DHT22;18385;51.572;6.578;2023-12-04T02:12:30;4.60;66.00
31677;DHT22;18385;51.572;6.578;2023-12-04T02:14:56;4.70;66.10
31677;DHT22;18385;51.572;6.578;2023-12-04T02:17:22;4.70;66.90
31677;DHT22;18385;51.572;6.578;2023-12-04T02:19:48;4.70;66.10
31677;DHT22;18385;51.572;6.578;2023-12-04T02:22:14;4.70;66.10
31677;DHT22;18385;51.572;6.578;2023-12-04T02:24:40;4.60;66.00
31677;DHT22;18385;51.572;6.578;2023-12-04T02:27:28;4.60;66.00
31677;DHT22;18385;51.572;6.578;2023-12-04T02:29:59;4.60;66.10
31677;DHT22;18385;51.572;6.578;2023-12-04T02:32:30;4.60;66.10
31677;DHT22;18385;51.572;6.578;2023-12-04T02:34:57;4.60;66.10
31677;DHT22;18385;51.572;6.578;2023-12-04T02:37:26;4.60;66.10
31677;DHT22;18385;51.572;6.578;2023-12-04T02:39:52;4.60;66.10
31677;DHT22;18385;51.572;6.578;2023-12-04T02:42:21;4.60;66.20
31677;DHT22;18385;51.572;6.578;2023-12-04T02:44:47;4.60;66.20
31677;DHT22;18385;51.572;6.578;2023-12-04T02:47:14;4.60;66.10
31677;DHT22;18385;51.572;6.578;2023-12-04T02:49:39;4.60;66.10
31677;DHT22;18385;51.572;6.578;2023-12-04T02:52:05;4.70;66.90
31677;DHT22;18385;51.572;6.578;2023-12-04T02:54:31;4.70;66.10
31677;DHT22;18385;51.572;6.578;2023-12-04T02:56:56;4.70;66.00
31677;DHT22;18385;51.572;6.578;2023-12-04T02:59:22;4.70;66.00
31677;DHT22;18385;51.572;6.578;2023-12-04T03:01:48;4.80;66.00
31677;DHT22;18385;51.572;6.578;2023-12-04T03:04:13;4.80;66.00
31677;DHT22;18385;51.572;6.578;2023-12-04T03:06:39;4.80;66.00
31677;DHT22;18385;51.572;6.578;2023-12-04T03:09:05;4.80;66.00
31677;DHT22;18385;51.572;6.578;2023-12-04T03:11:31;4.80;65.90
31677;DHT22;18385;51.572;6.578;2023-12-04T03:13:57;4.80;65.90
31677;DHT22;18385;51.572;6.578;2023-12-04T03:16:23;4.80;65.90
31677;DHT22;18385;51.572;6.578;2023-12-04T03:18:49;4.80;65.90
31677;DHT22;18385;51.572;6.578;2023-12-04T03:21:14;4.90;65.90
31677;DHT22;18385;51.572;6.578;2023-12-04T03:23:40;4.90;65.90
31677;DHT22;18385;51.572;6.578;2023-12-04T03:26:06;4.90;65.80
31677;DHT22;18385;51.572;6.578;2023-12-04T03:28:31;4.90;65.80
31677;DHT22;18385;51.572;6.578;2023-12-04T03:30:57;4.90;65.80
31677;DHT22;18385;51.572;6.578;2023-12-04T03:33:23;5.00;65.80
31677;DHT22;18385;51.572;6.578;2023-12-04T03:35:48;5.00;65.80
31677;DHT22;18385;51.572;6.578;2023-12-04T03:38:14;5.00;65.80
31677;DHT22;18385;51.572;6.578;2023-12-04T03:40:39;4.90;65.70
31677;DHT22;18385;51.572;6.578;2023-12-04T03:43:05;4.90;65.70
31677;DHT22;18385;51.572;6.578;2023-12-04T03:45:31;4.90;65.60
31677;DHT22;18385;51.572;6.578;2023-12-04T03:47:56;5.00;65.70
31677;DHT22;18385;51.572;6.578;2023-12-04T03:50:22;5.00;65.60
31677;DHT22;18385;51.572;6.578;2023-12-04T03:52:48;5.00;65.60
31677;DHT22;18385;51.572;6.578;2023-12-04T03:55:14;4.90;65.60
31677;DHT22;18385;51.572;6.578;2023-12-04T03:57:39;5.00;65.70
31677;DHT22;18385;51.572;6.578;2023-12-04T04:00:05;5.00;65.70
31677;DHT22;18385;51.572;6.578;2023-12-04T04:02:38;5.00;65.70
31677;DHT22;18385;51.572;6.578;2023-12-04T04:05:04;4.90;65.50
31677;DHT22;18385;51.572;6.578;2023-12-04T04:07:30;5.00;65.60
31677;DHT22;18385;51.572;6.578;2023-12-04T04:09:57;5.00;65.60
31677;DHT22;18385;51.572;6.578;2023-12-04T04:12:23;4.90;65.50
31677;DHT22;18385;51.572;6.578;2023-12-04T04:14:48;5.00;65.60
31677;DHT22;18385;51.572;6.578;2023-12-04T04:17:14;4.90;65.50
31677;DHT22;18385;51.572;6.578;2023-12-04T04:19:40;4.90;65.50
31677;DHT22;18385;51.572;6.578;2023-12-04T04:22:06;4.90;65.50
31677;DHT22;18385;51.572;6.578;2023-12-04T04:24:32;4.90;65.50
31677;DHT22;18385;51.572;6.578;2023-12-04T04:26:58;4.90;65.50
31677;DHT22;18385;51.572;6.578;2023-12-04T04:29:23;4.90;65.50
31677;DHT22;18385;51.572;6.578;2023-12-04T04:31:50;4.90;65.50
31677;DHT22;18385;51.572;6.578;2023-12-04T04:34:15;5.00;65.50
31677;DHT22;18385;51.572;6.578;2023-12-04T04:36:42;4.90;65.40
31677;DHT22;18385;51.572;6.578;2023-12-04T04:39:10;5.00;65.50
31677;DHT22;18385;51.572;6.578;2023-12-04T04:41:36;5.00;65.50
31677;DHT22;18385;51.572;6.578;2023-12-04T04:44:02;4.90;65.40
31677;DHT22;18385;51.572;6.578;2023-12-04T04:46:27;5.00;65.40
31677;DHT22;18385;51.572;6.578;2023-12-04T04:48:53;5.00;65.40
31677;DHT22;18385;51.572;6.578;2023-12-04T04:51:19;5.00;65.30
31677;DHT22;18385;51.572;6.578;2023-12-04T04:53:45;5.00;65.30
31677;DHT22;18385;51.572;6.578;2023-12-04T04:56:11;5.00;65.20
31677;DHT22;18385;51.572;6.578;2023-12-04T04:58:36;5.00;65.30
31677;DHT22;18385;51.572;6.578;2023-12-04T05:01:02;5.00;65.30
31677;DHT22;18385;51.572;6.578;2023-12-04T05:03:28;5.00;65.20
31677;DHT22;18385;51.572;6.578;2023-12-04T05:05:54;5.00;65.30
31677;DHT22;18385;51.572;6.578;2023-12-04T05:08:19;5.00;65.30
31677;DHT22;18385;51.572;6.578;2023-12-04T05:10:45;5.00;65.30
31677;DHT22;18385;51.572;6.578;2023-12-04T05:13:11;5.00;65.20
31677;DHT22;18385;51.572;6.578;2023-12-04T05:15:36;5.00;65.10
31677;DHT22;18385;51.572;6.578;2023-12-04T05:18:02;5.00;65.10
31677;DHT22;18385;51.572;6.578;2023-12-04T05:20:28;5.00;65.00
31677;DHT22;18385;51.572;6.578;2023-12-04T05:22:53;5.00;65.00
31677;DHT22;18385;51.572;6.578;2023-12-04T05:25:19;5.00;65.00
31677;DHT22;18385;51.572;6.578;2023-12-04T05:27:45;5.00;65.00
31677;DHT22;18385;51.572;6.578;2023-12-04T05:30:11;5.00;65.10
31677;DHT22;18385;51.572;6.578;2023-12-04T05:32:37;5.00;65.00
31677;DHT22;18385;51.572;6.578;2023-12-04T05:35:03;5.00;65.00
31677;DHT22;18385;51.572;6.578;2023-12-04T05:37:28;5.00;65.00
31677;DHT22;18385;51.572;6.578;2023-12-04T05:39:54;5.00;64.90
31677;DHT22;18385;51.572;6.578;2023-12-04T05:42:20;5.00;65.00
31677;DHT22;18385;51.572;6.578;2023-12-04T05:44:46;5.00;64.90
31677;DHT22;18385;51.572;6.578;2023-12-04T05:47:11;5.00;64.90
31677;DHT22;18385;51.572;6.578;2023-12-04T05:49:37;5.00;64.90
31677;DHT22;18385;51.572;6.578;2023-12-04T05:52:03;5.00;64.80
31677;DHT22;18385;51.572;6.578;2023-12-04T05:54:29;5.00;64.80
31677;DHT22;18385;51.572;6.578;2023-12-04T05:56:54;5.00;64.80
31677;DHT22;18385;51.572;6.578;2023-12-04T05:59:20;5.00;64.90
31677;DHT22;18385;51.572;6.578;2023-12-04T06:01:46;5.00;64.90
31677;DHT22;18385;51.572;6.578;2023-12-04T06:04:11;5.00;64.80
31677;DHT22;18385;51.572;6.578;2023-12-04T06:06:37;5.00;64.80
31677;DHT22;18385;51.572;6.578;2023-12-04T06:09:03;5.00;64.70
31677;DHT22;18385;51.572;6.578;2023-12-04T06:11:29;5.20;64.90
31677;DHT22;18385;51.572;6.578;2023-12-04T06:13:54;5.10;64.80
31677;DHT22;18385;51.572;6.578;2023-12-04T06:16:20;5.10;64.70
31677;DHT22;18385;51.572;6.578;2023-12-04T06:18:46;5.10;64.70
31677;DHT22;18385;51.572;6.578;2023-12-04T06:21:11;5.10;64.60
31677;DHT22;18385;51.572;6.578;2023-12-04T06:23:37;5.10;64.60
31677;DHT22;18385;51.572;6.578;2023-12-04T06:26:03;5.20;64.60
31677;DHT22;18385;51.572;6.578;2023-12-04T06:28:29;5.20;64.60
31677;DHT22;18385;51.572;6.578;2023-12-04T06:30:55;5.20;64.70
31677;DHT22;18385;51.572;6.578;2023-12-04T06:33:21;5.20;64.50
31677;DHT22;18385;51.572;6.578;2023-12-04T06:35:47;5.20;64.40
31677;DHT22;18385;51.572;6.578;2023-12-04T06:38:16;5.20;64.40
31677;DHT22;18385;51.572;6.578;2023-12-04T06:40:44;5.20;64.30
31677;DHT22;18385;51.572;6.578;2023-12-04T06:43:10;5.20;64.30
31677;DHT22;18385;51.572;6.578;2023-12-04T06:45:36;5.20;64.30
31677;DHT22;18385;51.572;6.578;2023-12-04T06:48:02;5.20;64.30
31677;DHT22;18385;51.572;6.578;2023-12-04T06:50:28;5.20;64.30
31677;DHT22;18385;51.572;6.578;2023-12-04T06:52:53;5.20;64.30
31677;DHT22;18385;51.572;6.578;2023-12-04T06:55:19;5.20;64.30
31677;DHT22;18385;51.572;6.578;2023-12-04T06:57:45;5.20;64.30
31677;DHT22;18385;51.572;6.578;2023-12-04T07:00:11;5.20;64.20
31677;DHT22;18385;51.572;6.578;2023-12-04T07:02:39;5.20;64.20
31677;DHT22;18385;51.572;6.578;2023-12-04T07:05:06;5.20;64.20
31677;DHT22;18385;51.572;6.578;2023-12-04T07:07:31;5.20;64.20
31677;DHT22;18385;51.572;6.578;2023-12-04T07:09:58;5.20;64.20
31677;DHT22;18385;51.572;6.578;2023-12-04T07:12:23;5.20;64.20
31677;DHT22;18385;51.572;6.578;2023-12-04T07:14:49;5.20;64.10
31677;DHT22;18385;51.572;6.578;2023-12-04T07:17:15;5.20;64.10
31677;DHT22;18385;51.572;6.578;2023-12-04T07:19:41;5.30;64.20
31677;DHT22;18385;51.572;6.578;2023-12-04T07:22:07;5.30;64.10
31677;DHT22;18385;51.572;6.578;2023-12-04T07:24:32;5.30;64.20
31677;DHT22;18385;51.572;6.578;2023-12-04T07:26:58;5.30;64.10
31677;DHT22;18385;51.572;6.578;2023-12-04T07:29:24;5.30;64.10
31677;DHT22;18385;51.572;6.578;2023-12-04T07:31:50;5.40;64.00
31677;DHT22;18385;51.572;6.578;2023-12-04T07:34:16;5.40;63.90
31677;DHT22;18385;51.572;6.578;2023-12-04T07:36:41;5.40;64.70
31677;DHT22;18385;51.572;6.578;2023-12-04T07:39:09;5.40;63.90
31677;DHT22;18385;51.572;6.578;2023-12-04T07:41:36;5.40;63.80
31677;DHT22;18385;51.572;6.578;2023-12-04T07:44:02;5.50;63.90
31677;DHT22;18385;51.572;6.578;2023-12-04T07:46:29;5.50;63.80
31677;DHT22;18385;51.572;6.578;2023-12-04T07:48:54;5.60;63.80
31677;DHT22;18385;51.572;6.578;2023-12-04T07:51:20;5.50;63.80
31677;DHT22;18385;51.572;6.578;2023-12-04T07:53:46;5.50;63.80
31677;DHT22;18385;51.572;6.578;2023-12-04T07:56:13;5.50;63.70
31677;DHT22;18385;51.572;6.578;2023-12-04T07:58:39;5.60;63.70
31677;DHT22;18385;51.572;6.578;2023-12-04T08:01:05;5.50;63.60
31677;DHT22;18385;51.572;6.578;2023-12-04T08:03:31;5.50;63.60
31677;DHT22;18385;51.572;6.578;2023-12-04T08:05:57;5.50;63.60
31677;DHT22;18385;51.572;6.578;2023-12-04T08:08:24;5.50;64.10
31677;DHT22;18385;51.572;6.578;2023-12-04T08:10:50;5.50;63.70
31677;DHT22;18385;51.572;6.578;2023-12-04T08:13:16;5.60;63.70
31677;DHT22;18385;51.572;6.578;2023-12-04T08:15:42;5.60;63.60
31677;DHT22;18385;51.572;6.578;2023-12-04T08:18:08;5.60;63.60
31677;DHT22;18385;51.572;6.578;2023-12-04T08:20:34;5.70;63.50
31677;DHT22;18385;51.572;6.578;2023-12-04T08:23:00;5.70;63.50
31677;DHT22;18385;51.572;6.578;2023-12-04T08:25:26;5.70;63.50
31677;DHT22;18385;51.572;6.578;2023-12-04T08:27:52;5.70;63.50
31677;DHT22;18385;51.572;6.578;2023-12-04T08:30:17;5.80;63.40
31677;DHT22;18385;51.572;6.578;2023-12-04T08:32:43;5.80;63.40
31677;DHT22;18385;51.572;6.578;2023-12-04T08:35:10;5.80;63.40
31677;DHT22;18385;51.572;6.578;2023-12-04T08:37:35;5.80;63.40
31677;DHT22;18385;51.572;6.578;2023-12-04T08:40:01;5.80;64.20
31677;DHT22;18385;51.572;6.578;2023-12-04T08:42:29;5.80;63.30
31677;DHT22;18385;51.572;6.578;2023-12-04T08:44:55;5.90;63.30
31677;DHT22;18385;51.572;6.578;2023-12-04T08:47:23;5.90;63.30
31677;DHT22;18385;51.572;6.578;2023-12-04T08:49:52;5.90;63.30
31677;DHT22;18385;51.572;6.578;2023-12-04T08:52:18;6.00;63.30
31677;DHT22;18385;51.572;6.578;2023-12-04T08:54:44;6.00;63.10
31677;DHT22;18385;51.572;6.578;2023-12-04T08:57:09;6.00;63.10
31677;DHT22;18385;51.572;6.578;2023-12-04T08:59:35;6.00;63.10
31677;DHT22;18385;51.572;6.578;2023-12-04T09:02:01;6.00;63.10
31677;DHT22;18385;51.572;6.578;2023-12-04T09:04:31;6.10;63.20
31677;DHT22;18385;51.572;6.578;2023-12-04T09:06:57;6.10;63.20
31677;DHT22;18385;51.572;6.578;2023-12-04T09:09:23;6.10;63.10
31677;DHT22;18385;51.572;6.578;2023-12-04T09:11:48;6.20;63.10
31677;DHT22;18385;51.572;6.578;2023-12-04T09:14:14;6.20;63.00
31677;DHT22;18385;51.572;6.578;2023-12-04T09:16:41;6.30;62.90
31677;DHT22;18385;51.572;6.578;2023-12-04T09:19:07;6.30;62.90
31677;DHT22;18385;51.572;6.578;2023-12-04T09:21:32;6.30;62.90
31677;DHT22;18385;51.572;6.578;2023-12-04T09:23:59;6.30;62.80
31677;DHT22;18385;51.572;6.578;2023-12-04T09:26:24;6.40;62.80
31677;DHT22;18385;51.572;6.578;2023-12-04T09:28:50;6.50;62.80
31677;DHT22;18385;51.572;6.578;2023-12-04T09:31:16;6.50;62.60
31677;DHT22;18385;51.572;6.578;2023-12-04T09:33:42;6.60;62.60
31677;DHT22;18385;51.572;6.578;2023-12-04T09:36:08;6.60;62.50
31677;DHT22;18385;51.572;6.578;2023-12-04T09:38:34;6.60;62.50
31677;DHT22;18385;51.572;6.578;2023-12-04T09:41:01;6.60;62.40
31677;DHT22;18385;51.572;6.578;2023-12-04T09:43:31;6.60;62.40
31677;DHT22;18385;51.572;6.578;2023-12-04T09:45:58;6.70;62.50
31677;DHT22;18385;51.572;6.578;2023-12-04T09:48:26;6.70;62.30
31677;DHT22;18385;51.572;6.578;2023-12-04T09:50:52;6.70;62.40
31677;DHT22;18385;51.572;6.578;2023-12-04T09:53:18;6.80;62.40
31677;DHT22;18385;51.572;6.578;2023-12-04T09:55:48;6.80;62.30
31677;DHT22;18385;51.572;6.578;2023-12-04T09:58:15;6.80;62.20
31677;DHT22;18385;51.572;6.578;2023-12-04T10:00:42;6.90;62.30
31677;DHT22;18385;51.572;6.578;2023-12-04T10:03:08;6.90;62.20
31677;DHT22;18385;51.572;6.578;2023-12-04T10:05:34;6.90;62.10
31677;DHT22;18385;51.572;6.578;2023-12-04T10:08:00;7.00;62.10
31677;DHT22;18385;51.572;6.578;2023-12-04T10:10:27;7.00;62.10
31677;DHT22;18385;51.572;6.578;2023-12-04T10:12:52;7.10;62.10
31677;DHT22;18385;51.572;6.578;2023-12-04T10:15:19;7.10;62.00
31677;DHT22;18385;51.572;6.578;2023-12-04T10:17:44;7.10;61.90
31677;DHT22;18385;51.572;6.578;2023-12-04T10:20:15;7.20;61.90
31677;DHT22;18385;51.572;6.578;2023-12-04T10:22:56;7.30;61.90
31677;DHT22;18385;51.572;6.578;2023-12-04T10:25:23;7.30;61.80
31677;DHT22;18385;51.572;6.578;2023-12-04T10:27:50;7.30;61.60
31677;DHT22;18385;51.572;6.578;2023-12-04T10:30:29;7.40;61.60
31677;DHT22;18385;51.572;6.578;2023-12-04T10:33:01;7.30;61.50
31677;DHT22;18385;51.572;6.578;2023-12-04T10:35:34;7.30;61.50
31677;DHT22;18385;51.572;6.578;2023-12-04T10:38:02;7.30;61.60
31677;DHT22;18385;51.572;6.578;2023-12-04T10:40:33;7.40;61.60
31677;DHT22;18385;51.572;6.578;2023-12-04T10:43:18;7.40;61.60
31677;DHT22;18385;51.572;6.578;2023-12-04T10:45:45;7.40;61.60
31677;DHT22;18385;51.572;6.578;2023-12-04T10:48:12;7.50;61.60
31677;DHT22;18385;51.572;6.578;2023-12-04T10:50:40;7.60;61.50
31677;DHT22;18385;51.572;6.578;2023-12-04T10:53:11;7.60;61.50
31677;DHT22;18385;51.572;6.578;2023-12-04T10:55:38;7.80;61.40
31677;DHT22;18385;51.572;6.578;2023-12-04T10:58:10;7.80;61.30
31677;DHT22;18385;51.572;6.578;2023-12-04T11:00:45;7.90;61.30
31677;DHT22;18385;51.572;6.578;2023-12-04T11:03:21;8.00;61.30
31677;DHT22;18385;51.572;6.578;2023-12-04T11:05:56;8.10;61.10
31677;DHT22;18385;51.572;6.578;2023-12-04T11:08:26;8.10;60.90
31677;DHT22;18385;51.572;6.578;2023-12-04T11:11:01;8.10;60.60
31677;DHT22;18385;51.572;6.578;2023-12-04T11:13:37;8.00;60.60
31677;DHT22;18385;51.572;6.578;2023-12-04T11:16:27;7.90;60.60
31677;DHT22;18385;51.572;6.578;2023-12-04T11:19:32;7.80;60.60
31677;DHT22;18385;51.572;6.578;2023-12-04T11:22:00;7.70;60.70
31677;DHT22;18385;51.572;6.578;2023-12-04T11:24:28;7.60;60.70
31677;DHT22;18385;51.572;6.578;2023-12-04T11:26:54;7.60;60.80
31677;DHT22;18385;51.572;6.578;2023-12-04T11:29:21;7.60;60.90
31677;DHT22;18385;51.572;6.578;2023-12-04T11:31:48;7.60;61.00
31677;DHT22;18385;51.572;6.578;2023-12-04T11:34:13;7.70;60.90
31677;DHT22;18385;51.572;6.578;2023-12-04T11:36:39;7.70;60.70
31677;DHT22;18385;51.572;6.578;2023-12-04T11:39:09;7.80;60.80
31677;DHT22;18385;51.572;6.578;2023-12-04T11:41:40;7.80;60.70
31677;DHT22;18385;51.572;6.578;2023-12-04T11:44:12;7.70;60.50
31677;DHT22;18385;51.572;6.578;2023-12-04T11:46:58;7.60;60.40
31677;DHT22;18385;51.572;6.578;2023-12-04T11:49:31;7.60;60.50
31677;DHT22;18385;51.572;6.578;2023-12-04T11:51:58;7.50;60.60
31677;DHT22;18385;51.572;6.578;2023-12-04T11:54:26;7.50;60.60
31677;DHT22;18385;51.572;6.578;2023-12-04T11:59:37;7.40;60.70
31677;DHT22;18385;51.572;6.578;2023-12-04T12:02:08;7.40;60.70
31677;DHT22;18385;51.572;6.578;2023-12-04T12:04:34;7.40;60.70
31677;DHT22;18385;51.572;6.578;2023-12-04T12:07:00;7.30;60.50
31677;DHT22;18385;51.572;6.578;2023-12-04T12:09:32;7.40;60.80
31677;DHT22;18385;51.572;6.578;2023-12-04T12:12:01;7.50;60.90
31677;DHT22;18385;51.572;6.578;2023-12-04T12:14:29;7.50;60.70
31677;DHT22;18385;51.572;6.578;2023-12-04T12:17:01;7.40;60.40
31677;DHT22;18385;51.572;6.578;2023-12-04T12:19:30;7.30;60.40
31677;DHT22;18385;51.572;6.578;2023-12-04T12:22:29;7.20;60.40
31677;DHT22;18385;51.572;6.578;2023-12-04T12:25:13;7.20;60.60
31677;DHT22;18385;51.572;6.578;2023-12-04T12:27:45;7.20;60.80
31677;DHT22;18385;51.572;6.578;2023-12-04T12:30:11;7.20;60.90
31677;DHT22;18385;51.572;6.578;2023-12-04T12:32:37;7.20;60.90
31677;DHT22;18385;51.572;6.578;2023-12-04T12:35:03;7.20;60.80
31677;DHT22;18385;51.572;6.578;2023-12-04T12:37:29;7.20;60.70
31677;DHT22;18385;51.572;6.578;2023-12-04T12:39:56;7.20;60.70
31677;DHT22;18385;51.572;6.578;2023-12-04T12:42:25;7.20;60.70
31677;DHT22;18385;51.572;6.578;2023-12-04T12:44:52;7.20;60.80
31677;DHT22;18385;51.572;6.578;2023-12-04T12:47:18;7.10;60.80
31677;DHT22;18385;51.572;6.578;2023-12-04T12:49:44;7.10;60.90
31677;DHT22;18385;51.572;6.578;2023-12-04T12:52:10;7.20;61.00
31677;DHT22;18385;51.572;6.578;2023-12-04T12:54:37;7.20;61.00
31677;DHT22;18385;51.572;6.578;2023-12-04T12:57:03;7.30;61.00
31677;DHT22;18385;51.572;6.578;2023-12-04T12:59:29;7.30;61.00
31677;DHT22;18385;51.572;6.578;2023-12-04T13:01:55;7.40;60.90
31677;DHT22;18385;51.572;6.578;2023-12-04T13:04:22;7.40;61.60
31677;DHT22;18385;51.572;6.578;2023-12-04T13:06:48;7.40;60.70
31677;DHT22;18385;51.572;6.578;2023-12-04T13:09:14;7.30;60.60
31677;DHT22;18385;51.572;6.578;2023-12-04T13:11:46;7.30;60.90
31677;DHT22;18385;51.572;6.578;2023-12-04T13:14:12;7.30;61.00
31677;DHT22;18385;51.572;6.578;2023-12-04T13:16:38;7.30;61.00
31677;DHT22;18385;51.572;6.578;2023-12-04T13:19:03;7.30;61.00
31677;DHT22;18385;51.572;6.578;2023-12-04T13:21:29;7.30;61.00
31677;DHT22;18385;51.572;6.578;2023-12-04T13:23:56;7.30;61.10
31677;DHT22;18385;51.572;6.578;2023-12-04T13:26:22;7.40;61.20
31677;DHT22;18385;51.572;6.578;2023-12-04T13:28:48;7.40;61.20
31677;DHT22;18385;51.572;6.578;2023-12-04T13:31:13;7.40;61.10
31677;DHT22;18385;51.572;6.578;2023-12-04T13:33:39;7.40;61.00
31677;DHT22;18385;51.572;6.578;2023-12-04T13:36:05;7.40;60.90
31677;DHT22;18385;51.572;6.578;2023-12-04T13:38:31;7.30;60.90
31677;DHT22;18385;51.572;6.578;2023-12-04T13:40:58;7.30;61.00
31677;DHT22;18385;51.572;6.578;2023-12-04T13:43:34;7.30;61.10
31677;DHT22;18385;51.572;6.578;2023-12-04T13:46:19;7.30;61.10
31677;DHT22;18385;51.572;6.578;2023-12-04T13:48:45;7.20;61.20
31677;DHT22;18385;51.572;6.578;2023-12-04T13:51:11;7.20;62.00
31677;DHT22;18385;51.572;6.578;2023-12-04T13:53:39;7.20;61.30
31677;DHT22;18385;51.572;6.578;2023-12-04T13:56:15;7.20;61.40
31677;DHT22;18385;51.572;6.578;2023-12-04T13:58:47;7.20;61.30
31677;DHT22;18385;51.572;6.578;2023-12-04T14:01:19;7.20;61.50
31677;DHT22;18385;51.572;6.578;2023-12-04T14:03:48;7.30;61.50
31677;DHT22;18385;51.572;6.578;2023-12-04T14:06:14;7.20;61.40
31677;DHT22;18385;51.572;6.578;2023-12-04T14:08:41;7.20;61.30
31677;DHT22;18385;51.572;6.578;2023-12-04T14:11:07;7.20;61.40
31677;DHT22;18385;51.572;6.578;2023-12-04T14:13:33;7.20;61.50
31677;DHT22;18385;51.572;6.578;2023-12-04T14:15:59;7.20;61.50
31677;DHT22;18385;51.572;6.578;2023-12-04T14:18:25;7.20;61.60
31677;DHT22;18385;51.572;6.578;2023-12-04T14:20:51;7.20;61.60
31677;DHT22;18385;51.572;6.578;2023-12-04T14:23:17;7.20;61.60
31677;DHT22;18385;51.572;6.578;2023-12-04T14:25:45;7.20;61.60
31677;DHT22;18385;51.572;6.578;2023-12-04T14:28:10;7.20;61.70
31677;DHT22;18385;51.572;6.578;2023-12-04T14:30:36;7.20;62.30
31677;DHT22;18385;51.572;6.578;2023-12-04T14:33:02;7.20;61.60
31677;DHT22;18385;51.572;6.578;2023-12-04T14:35:28;7.20;61.60
31677;DHT22;18385;51.572;6.578;2023-12-04T14:37:53;7.20;61.60
31677;DHT22;18385;51.572;6.578;2023-12-04T14:40:19;7.20;61.70
31677;DHT22;18385;51.572;6.578;2023-12-04T14:42:45;7.10;61.70
31677;DHT22;18385;51.572;6.578;2023-12-04T14:45:12;7.20;62.00
31677;DHT22;18385;51.572;6.578;2023-12-04T14:47:39;7.20;61.90
31677;DHT22;18385;51.572;6.578;2023-12-04T14:50:06;7.20;61.90
31677;DHT22;18385;51.572;6.578;2023-12-04T14:52:32;7.20;61.90
31677;DHT22;18385;51.572;6.578;2023-12-04T14:54:59;7.20;61.80
31677;DHT22;18385;51.572;6.578;2023-12-04T14:57:34;7.20;61.90
31677;DHT22;18385;51.572;6.578;2023-12-04T15:02:35;7.20;61.90
31677;DHT22;18385;51.572;6.578;2023-12-04T15:05:27;7.20;61.90
31677;DHT22;18385;51.572;6.578;2023-12-04T15:08:05;7.20;61.90
31677;DHT22;18385;51.572;6.578;2023-12-04T15:10:50;7.20;61.90
31677;DHT22;18385;51.572;6.578;2023-12-04T15:13:19;7.20;61.90
31677;DHT22;18385;51.572;6.578;2023-12-04T15:16:03;7.20;62.10
31677;DHT22;18385;51.572;6.578;2023-12-04T15:18:38;7.20;62.10
31677;DHT22;18385;51.572;6.578;2023-12-04T15:21:24;7.20;62.10
31677;DHT22;18385;51.572;6.578;2023-12-04T15:23:50;7.10;62.10
31677;DHT22;18385;51.572;6.578;2023-12-04T15:26:16;7.10;62.10
31677;DHT22;18385;51.572;6.578;2023-12-04T15:28:43;7.00;62.10
31677;DHT22;18385;51.572;6.578;2023-12-04T15:31:09;7.00;62.20
31677;DHT22;18385;51.572;6.578;2023-12-04T15:33:34;7.00;62.20
31677;DHT22;18385;51.572;6.578;2023-12-04T15:36:04;7.00;62.30
31677;DHT22;18385;51.572;6.578;2023-12-04T15:38:30;7.00;62.40
31677;DHT22;18385;51.572;6.578;2023-12-04T15:40:55;6.90;62.30
31677;DHT22;18385;51.572;6.578;2023-12-04T15:43:22;6.90;62.40
31677;DHT22;18385;51.572;6.578;2023-12-04T15:45:47;6.90;62.40
31677;DHT22;18385;51.572;6.578;2023-12-04T15:48:13;6.90;62.50
31677;DHT22;18385;51.572;6.578;2023-12-04T15:50:38;6.90;62.50